.
WxDataArchive / Data Records for 2014-10-10
2014-10-09 October 2014 2014-10-11

Data Records for Friday, 10 October 2014

Time	Temp	Chill	HIndex	Humid	Dewpt	 Wind 	HiWind	WindDir	Rain 	Barom
-----	----	-----	------	-----	-----	------	------	-------	-----	-----
00:00	42.9	42.9	42.9	80	37.2	0	0	---	0.00	30.104 
00:05	42.8	42.8	42.8	80	37.1	0	0	---	0.00	30.104 
00:10	42.6	42.6	42.6	80	36.9	0	0	---	0.00	30.104 
00:15	42.3	42.3	42.3	81	36.9	0	0	---	0.00	30.102 
00:20	42.1	42.1	42.1	81	36.7	0	0	---	0.00	30.102 
00:25	41.9	41.9	41.9	82	36.8	0	0	---	0.00	30.102 
00:30	41.8	41.8	41.8	82	36.7	0	0	---	0.00	30.104 
00:35	41.6	41.6	41.6	83	36.8	0	0	---	0.00	30.104 
00:40	41.6	41.6	41.6	83	36.8	0	0	---	0.00	30.104 
00:45	41.3	41.3	41.3	84	36.8	0	0	---	0.00	30.101 
00:50	41.2	41.2	41.2	84	36.7	0	0	---	0.00	30.101 
00:55	41.1	41.1	41.1	84	36.6	0	0	---	0.00	30.101 
01:00	41.1	41.1	41.1	85	36.9	0	0	---	0.00	30.101 
01:05	40.9	40.9	40.9	85	36.7	0	0	---	0.00	30.101 
01:10	40.8	40.8	40.8	85	36.6	0	0	---	0.00	30.101 
01:15	40.8	40.8	40.8	86	36.9	0	0	---	0.00	30.098 
01:20	40.6	40.6	40.6	86	36.7	0	0	---	0.00	30.098 
01:25	40.6	40.6	40.6	86	36.7	0	0	---	0.00	30.098 
01:30	40.5	40.5	40.5	86	36.6	0	0	---	0.00	30.092 
01:35	40.3	40.3	40.3	86	36.5	0	0	---	0.00	30.092 
01:40	40.2	40.2	40.2	86	36.4	0	0	---	0.00	30.092 
01:45	40.2	40.2	40.2	87	36.6	0	0	---	0.00	30.096 
01:50	40.1	40.1	40.1	87	36.5	0	0	---	0.00	30.096 
01:55	40.1	40.1	40.1	87	36.5	0	0	---	0.00	30.096 
02:00	39.9	39.9	39.9	87	36.4	0	0	---	0.00	30.093 
02:05	39.9	39.9	39.9	87	36.4	0	0	---	0.00	30.093 
02:10	39.9	39.9	39.9	87	36.4	0	0	---	0.00	30.093 
02:15	39.8	39.8	39.8	87	36.3	0	0	---	0.00	30.090 
02:20	39.6	39.6	39.6	87	36.1	0	0	---	0.00	30.090 
02:25	39.6	39.6	39.6	87	36.1	0	0	---	0.00	30.090 
02:30	39.5	39.5	39.5	87	36.0	0	0	---	0.00	30.091 
02:35	39.5	39.5	39.5	87	36.0	0	0	---	0.00	30.091 
02:40	39.3	39.3	39.3	87	35.8	0	0	---	0.00	30.091 
02:45	39.3	39.3	39.3	87	35.8	0	0	---	0.00	30.101 
02:50	39.2	39.2	39.2	88	35.9	0	0	---	0.00	30.101 
02:55	39.2	39.2	39.2	88	35.9	0	0	---	0.00	30.101 
03:00	39.1	39.1	39.1	88	35.9	0	0	---	0.00	30.099 
03:05	38.9	38.9	38.9	88	35.7	0	0	---	0.00	30.099 
03:10	38.9	38.9	38.9	88	35.7	0	0	---	0.00	30.099 
03:15	38.8	38.8	38.8	88	35.6	0	0	---	0.00	30.100 
03:20	38.8	38.8	38.8	88	35.6	0	0	---	0.00	30.100 
03:25	38.8	38.8	38.8	88	35.6	0	0	---	0.00	30.100 
03:30	38.8	38.8	38.8	88	35.6	0	0	---	0.00	30.094 
03:35	38.6	38.6	38.6	88	35.4	0	0	---	0.00	30.094 
03:40	38.5	38.5	38.5	89	35.5	0	0	---	0.00	30.094 
03:45	38.5	38.5	38.5	89	35.5	0	0	---	0.00	30.089 
03:50	38.5	38.5	38.5	89	35.5	0	0	---	0.00	30.089 
03:55	38.8	38.8	38.8	90	36.1	0	0	---	0.00	30.089 
04:00	39.1	39.1	39.1	90	36.4	0	0	---	0.00	30.092 
04:05	39.3	39.3	39.3	90	36.6	0	0	---	0.00	30.092 
04:10	39.3	39.3	39.3	90	36.6	0	0	---	0.00	30.092 
04:15	39.5	39.5	39.5	90	36.8	0	0	---	0.00	30.091 
04:20	39.6	39.6	39.6	90	36.9	0	0	---	0.00	30.091 
04:25	39.8	39.8	39.8	89	36.8	0	0	---	0.00	30.091 
04:30	39.9	39.9	39.9	89	36.9	0	0	---	0.00	30.086 
04:35	40.1	40.1	40.1	89	37.1	0	0	---	0.00	30.086 
04:40	40.1	40.1	40.1	89	37.1	0	0	---	0.00	30.086 
04:45	40.3	40.3	40.3	89	37.3	0	0	---	0.00	30.085 
04:50	40.3	40.3	40.3	88	37.0	0	0	---	0.00	30.085 
04:55	40.5	40.5	40.5	88	37.2	0	0	---	0.00	30.085 
05:00	40.3	40.3	40.3	88	37.0	0	0	---	0.00	30.089 
05:05	40.3	40.3	40.3	88	37.0	0	0	---	0.00	30.089 
05:10	40.5	40.5	40.5	88	37.2	0	0	---	0.00	30.089 
05:15	40.6	40.6	40.6	88	37.3	0	1	270	0.00	30.088 
05:20	40.6	40.6	40.6	88	37.3	0	0	---	0.00	30.088 
05:25	40.6	40.6	40.6	88	37.3	0	0	---	0.00	30.088 
05:30	40.6	40.6	40.6	88	37.3	0	0	---	0.00	30.091 
05:35	40.6	40.6	40.6	88	37.3	0	0	---	0.00	30.091 
05:40	40.6	40.6	40.6	88	37.3	0	0	---	0.00	30.091 
05:45	40.5	40.5	40.5	88	37.2	0	0	---	0.00	30.098 
05:50	40.5	40.5	40.5	88	37.2	0	0	---	0.00	30.098 
05:55	40.5	40.5	40.5	88	37.2	0	0	---	0.00	30.098 
06:00	40.5	40.5	40.5	88	37.2	0	0	---	0.00	30.093 
06:05	40.5	40.5	40.5	88	37.2	0	0	---	0.00	30.093 
06:10	40.3	40.3	40.3	88	37.0	0	0	---	0.00	30.093 
06:15	40.3	40.3	40.3	88	37.0	0	0	---	0.00	30.097 
06:20	40.3	40.3	40.3	88	37.0	0	0	---	0.00	30.097 
06:25	40.5	40.5	40.5	88	37.2	0	0	---	0.00	30.097 
06:30	40.5	40.5	40.5	88	37.2	0	0	---	0.00	30.099 
06:35	40.5	40.5	40.5	88	37.2	0	0	---	0.00	30.099 
06:40	40.5	40.5	40.5	88	37.2	0	0	---	0.00	30.099 
06:45	40.6	40.6	40.6	88	37.3	0	0	---	0.00	30.108 
06:50	40.6	40.6	40.6	88	37.3	0	0	---	0.00	30.108 
06:55	40.5	40.5	40.5	88	37.2	0	0	---	0.00	30.108 
07:00	40.5	40.5	40.5	88	37.2	0	0	---	0.00	30.106 
07:05	40.5	40.5	40.5	88	37.2	0	0	---	0.00	30.106 
07:10	40.3	40.3	40.3	88	37.0	0	0	---	0.00	30.106 
07:15	40.3	40.3	40.3	88	37.0	0	0	---	0.00	30.117 
07:20	40.3	40.3	40.3	88	37.0	0	0	---	0.00	30.117 
07:25	40.2	40.2	40.2	88	36.9	0	0	---	0.00	30.117 
07:30	40.2	40.2	40.2	89	37.2	0	0	---	0.00	30.113 
07:35	40.2	40.2	40.2	89	37.2	0	0	---	0.00	30.113 
07:40	40.1	40.1	40.1	89	37.1	0	0	---	0.00	30.113 
07:45	40.1	40.1	40.1	89	37.1	0	0	---	0.00	30.109 
07:50	40.1	40.1	40.1	89	37.1	0	0	---	0.00	30.109 
07:55	40.2	40.2	40.2	89	37.2	0	0	---	0.00	30.109 
08:00	40.3	40.3	40.3	89	37.3	0	0	---	0.00	30.113 
08:05	40.5	40.5	40.5	89	37.5	0	1	270	0.00	30.113 
08:10	40.6	40.6	40.6	89	37.6	0	0	---	0.00	30.113 
08:15	40.6	40.6	40.6	89	37.6	0	0	---	0.00	30.117 
08:20	40.6	40.6	40.6	89	37.6	0	0	---	0.00	30.117 
08:25	40.8	40.8	40.8	89	37.8	0	0	---	0.00	30.117 
08:30	40.8	40.8	40.8	89	37.8	0	0	---	0.00	30.124 
08:35	40.9	40.9	40.9	89	37.9	0	0	---	0.00	30.124 
08:40	41.1	41.1	41.1	89	38.1	0	0	---	0.00	30.124 
08:45	41.2	41.2	41.2	89	38.2	0	0	---	0.00	30.132 
08:50	41.3	41.3	41.3	89	38.3	0	1	270	0.00	30.132 
08:55	41.5	41.5	41.5	88	38.2	0	1	270	0.00	30.132 
09:00	41.6	41.6	41.6	88	38.3	0	0	---	0.00	30.135 
09:05	41.8	41.8	41.8	88	38.5	0	1	270	0.00	30.135 
09:10	41.9	41.9	41.9	88	38.6	0	1	270	0.00	30.135 
09:15	42.2	42.2	42.2	87	38.6	0	1	270	0.00	30.141 
09:20	42.3	42.3	42.3	87	38.7	0	1	270	0.00	30.141 
09:25	42.5	42.5	42.5	86	38.6	0	1	270	0.00	30.141 
09:30	42.8	42.8	42.8	86	38.9	0	1	270	0.00	30.138 
09:35	43.1	43.1	43.1	85	38.9	0	2	270	0.00	30.138 
09:40	43.3	43.3	43.3	84	38.8	0	2	248	0.00	30.138 
09:45	43.6	43.6	43.6	84	39.1	0	1	248	0.00	30.141 
09:50	43.9	43.9	43.9	83	39.1	0	2	248	0.00	30.141 
09:55	44.1	44.1	44.1	81	38.6	0	2	248	0.00	30.141 
10:00	44.3	44.3	44.3	81	38.8	0	1	248	0.00	30.140 
10:05	44.6	44.6	44.6	81	39.1	0	2	248	0.00	30.140 
10:10	44.8	44.8	44.8	81	39.3	0	1	248	0.00	30.140 
10:15	45.1	45.1	45.1	80	39.3	0	2	248	0.00	30.142 
10:20	45.4	45.4	45.4	79	39.3	0	2	248	0.00	30.142 
10:25	46.2	46.2	46.2	78	39.7	0	2	248	0.00	30.142 
10:30	47.1	47.1	47.1	76	39.9	0	2	248	0.00	30.145 
10:35	47.7	47.7	47.7	74	39.8	1	5	112	0.00	30.145 
10:40	48.2	48.2	48.2	75	40.7	1	4	112	0.00	30.145 
10:45	48.6	48.6	48.6	73	40.3	1	4	112	0.00	30.139 
10:50	48.8	48.8	48.8	73	40.5	0	1	112	0.00	30.139 
10:55	49.1	49.1	49.1	72	40.5	0	3	112	0.00	30.139 
11:00	49.4	49.4	49.4	70	40.0	0	3	90	0.00	30.148 
11:05	49.6	49.6	49.6	70	40.2	1	4	90	0.00	30.148 
11:10	50.5	50.5	50.5	71	41.5	0	2	90	0.00	30.148 
11:15	51.3	51.3	51.3	67	40.7	1	4	90	0.00	30.149 
11:20	51.7	51.7	51.7	64	39.9	2	7	90	0.00	30.149 
11:25	52.0	52.0	52.0	66	41.0	1	3	112	0.00	30.149 
11:30	52.3	52.3	52.3	65	40.9	2	6	112	0.00	30.150 
11:35	52.6	52.6	52.6	65	41.2	1	5	90	0.00	30.150 
11:40	52.5	52.5	52.5	62	39.9	2	5	90	0.00	30.150 
11:45	52.2	52.2	52.2	65	40.8	1	6	68	0.00	30.153 
11:50	52.0	52.0	52.0	63	39.8	2	5	68	0.00	30.153 
11:55	52.0	52.0	52.0	63	39.8	2	5	90	0.00	30.153 
12:00	52.2	52.2	52.2	64	40.4	1	4	90	0.00	30.150 
12:05	52.3	52.3	52.3	62	39.7	1	5	90	0.00	30.150 
12:10	52.5	52.5	52.5	63	40.3	1	3	90	0.00	30.150 
12:15	52.5	52.5	52.5	62	39.9	1	3	135	0.00	30.148 
12:20	52.6	52.6	52.6	62	40.0	1	4	112	0.00	30.148 
12:25	52.9	52.9	52.9	63	40.7	1	5	135	0.00	30.148 
12:30	52.9	52.9	52.9	62	40.2	1	4	90	0.00	30.146 
12:35	52.8	52.8	52.8	62	40.1	1	4	90	0.00	30.146 
12:40	52.8	52.8	52.8	62	40.1	1	4	90	0.00	30.146 
12:45	53.1	53.1	53.1	62	40.4	1	5	90	0.00	30.141 
12:50	53.1	53.1	53.1	58	38.7	2	9	90	0.00	30.141 
12:55	53.2	53.2	53.2	60	39.7	0	3	68	0.00	30.141 
13:00	53.6	53.6	53.6	60	40.1	1	5	90	0.00	30.140 
13:05	53.9	53.9	53.9	58	39.5	1	5	90	0.00	30.140 
13:10	54.2	54.2	54.2	58	39.7	1	4	90	0.00	30.140 
13:15	54.5	54.5	54.5	58	40.0	1	4	90	0.00	30.140 
13:20	54.5	54.5	54.5	57	39.6	1	3	90	0.00	30.140 
13:25	54.7	54.7	54.7	56	39.3	1	4	90	0.00	30.140 
13:30	54.5	54.5	54.5	54	38.2	2	5	90	0.00	30.138 
13:35	54.5	54.5	54.5	55	38.7	1	4	90	0.00	30.138 
13:40	54.4	54.4	54.4	52	37.1	2	6	112	0.00	30.138 
13:45	54.7	54.7	54.7	53	37.9	1	4	112	0.00	30.136 
13:50	54.8	54.8	54.8	54	38.5	0	2	68	0.00	30.136 
13:55	55.0	55.0	55.0	53	38.2	1	3	68	0.00	30.136 
14:00	55.0	55.0	55.0	55	39.1	1	4	315	0.00	30.132 
14:05	55.0	55.0	55.0	56	39.6	1	3	90	0.00	30.132 
14:10	55.0	55.0	55.0	52	37.7	1	4	112	0.00	30.132 
14:15	55.1	55.1	55.1	54	38.8	1	2	135	0.00	30.128 
14:20	55.1	55.1	55.1	53	38.3	0	1	135	0.00	30.128 
14:25	55.3	55.3	55.3	53	38.5	1	4	135	0.00	30.128 
14:30	55.3	55.3	55.3	51	37.5	1	3	135	0.00	30.121 
14:35	55.4	55.4	55.4	53	38.6	0	4	135	0.00	30.121 
14:40	55.6	55.6	55.6	54	39.2	1	3	135	0.00	30.121 
14:45	55.7	55.7	55.7	55	39.8	1	3	135	0.00	30.115 
14:50	55.7	55.7	55.7	54	39.3	0	2	112	0.00	30.115 
14:55	55.7	55.7	55.7	51	37.9	1	2	68	0.00	30.115 
15:00	55.7	55.7	55.7	52	38.3	0	3	68	0.00	30.110 
15:05	55.9	55.9	55.9	55	40.0	0	1	68	0.00	30.110 
15:10	55.9	55.9	55.9	52	38.5	0	2	68	0.00	30.110 
15:15	56.0	56.0	56.0	54	39.6	1	4	68	0.00	30.105 
15:20	56.3	56.3	56.3	53	39.4	0	3	68	0.00	30.105 
15:25	56.5	56.5	56.5	52	39.1	1	3	68	0.00	30.105 
15:30	56.6	56.6	56.6	54	40.1	1	3	68	0.00	30.097 
15:35	56.5	56.5	56.5	53	39.6	0	4	158	0.00	30.097 
15:40	56.5	56.5	56.5	53	39.6	1	5	135	0.00	30.097 
15:45	56.3	56.3	56.3	51	38.4	1	3	90	0.00	30.091 
15:50	56.3	56.3	56.3	52	38.9	0	3	90	0.00	30.091 
15:55	56.3	56.3	56.3	51	38.4	0	3	90	0.00	30.091 
16:00	56.3	56.3	56.3	52	38.9	0	2	90	0.00	30.094 
16:05	56.2	56.2	56.2	51	38.3	1	4	90	0.00	30.094 
16:10	56.2	56.2	56.2	53	39.3	0	3	90	0.00	30.094 
16:15	56.0	56.0	56.0	51	38.1	0	2	90	0.00	30.089 
16:20	56.0	56.0	56.0	51	38.1	0	2	90	0.00	30.089 
16:25	56.0	56.0	56.0	53	39.1	0	1	90	0.00	30.089 
16:30	56.0	56.0	56.0	52	38.6	0	2	90	0.00	30.090 
16:35	55.9	55.9	55.9	50	37.5	1	4	90	0.00	30.090 
16:40	55.9	55.9	55.9	50	37.5	0	3	90	0.00	30.090 
16:45	55.7	55.7	55.7	50	37.3	1	3	90	0.00	30.089 
16:50	55.7	55.7	55.7	50	37.3	0	3	90	0.00	30.089 
16:55	55.6	55.6	55.6	50	37.3	0	2	90	0.00	30.089 
17:00	55.6	55.6	55.6	52	38.3	0	1	90	0.00	30.084 
17:05	55.4	55.4	55.4	51	37.6	0	3	90	0.00	30.084 
17:10	55.4	55.4	55.4	52	38.1	0	1	90	0.00	30.084 
17:15	55.4	55.4	55.4	54	39.0	0	1	90	0.00	30.081 
17:20	55.4	55.4	55.4	54	39.0	0	2	90	0.00	30.081 
17:25	55.3	55.3	55.3	54	38.9	0	1	90	0.00	30.081 
17:30	55.3	55.3	55.3	52	38.0	0	1	90	0.00	30.081 
17:35	55.3	55.3	55.3	54	38.9	0	0	---	0.00	30.081 
17:40	55.1	55.1	55.1	54	38.8	0	1	90	0.00	30.081 
17:45	55.1	55.1	55.1	55	39.2	0	1	90	0.00	30.084 
17:50	55.1	55.1	55.1	54	38.8	0	0	---	0.00	30.084 
17:55	55.1	55.1	55.1	56	39.7	0	0	---	0.00	30.084 
18:00	55.0	55.0	55.0	55	39.1	0	0	---	0.00	30.083 
18:05	54.8	54.8	54.8	55	38.9	0	0	---	0.00	30.083 
18:10	54.8	54.8	54.8	56	39.4	0	1	90	0.00	30.083 
18:15	54.7	54.7	54.7	57	39.8	0	0	---	0.00	30.086 
18:20	54.5	54.5	54.5	57	39.6	0	0	---	0.00	30.086 
18:25	54.4	54.4	54.4	58	39.9	0	0	---	0.00	30.086 
18:30	54.2	54.2	54.2	57	39.3	0	0	---	0.00	30.082 
18:35	54.2	54.2	54.2	58	39.7	0	0	---	0.00	30.082 
18:40	54.1	54.1	54.1	58	39.7	0	0	---	0.00	30.082 
18:45	53.8	53.8	53.8	59	39.8	0	0	---	0.00	30.088 
18:50	53.5	53.5	53.5	59	39.5	0	0	---	0.00	30.088 
18:55	53.2	53.2	53.2	59	39.2	0	0	---	0.00	30.088 
19:00	52.9	52.9	52.9	60	39.4	0	0	---	0.00	30.086 
19:05	52.6	52.6	52.6	61	39.5	0	0	---	0.00	30.086 
19:10	52.3	52.3	52.3	61	39.3	0	0	---	0.00	30.086 
19:15	52.0	52.0	52.0	62	39.4	0	0	---	0.00	30.091 
19:20	51.9	51.9	51.9	64	40.1	0	0	---	0.00	30.091 
19:25	51.6	51.6	51.6	65	40.2	0	0	---	0.00	30.091 
19:30	51.3	51.3	51.3	65	39.9	0	0	---	0.00	30.094 
19:35	51.0	51.0	51.0	68	40.8	0	0	---	0.00	30.094 
19:40	50.7	50.7	50.7	68	40.5	0	0	---	0.00	30.094 
19:45	50.4	50.4	50.4	68	40.2	0	0	---	0.00	30.094 
19:50	50.1	50.1	50.1	70	40.7	0	0	---	0.00	30.094 
19:55	49.9	49.9	49.9	72	41.2	0	0	---	0.00	30.094 
20:00	49.8	49.8	49.8	73	41.5	0	0	---	0.00	30.101 
20:05	49.6	49.6	49.6	74	41.7	0	0	---	0.00	30.101 
20:10	49.4	49.4	49.4	75	41.8	0	0	---	0.00	30.101 
20:15	49.2	49.2	49.2	76	42.0	0	0	---	0.00	30.098 
20:20	49.1	49.1	49.1	76	41.9	0	0	---	0.00	30.098 
20:25	48.9	48.9	48.9	78	42.3	0	0	---	0.00	30.098 
20:30	48.8	48.8	48.8	78	42.2	0	0	---	0.00	30.098 
20:35	48.6	48.6	48.6	78	42.1	0	0	---	0.00	30.098 
20:40	48.5	48.5	48.5	78	42.0	0	0	---	0.00	30.098 
20:45	48.5	48.5	48.5	79	42.3	0	0	---	0.00	30.102 
20:50	48.3	48.3	48.3	79	42.1	0	0	---	0.00	30.102 
20:55	48.3	48.3	48.3	80	42.4	0	0	---	0.00	30.102 
21:00	48.2	48.2	48.2	80	42.3	0	0	---	0.00	30.095 
21:05	48.2	48.2	48.2	80	42.3	0	0	---	0.00	30.095 
21:10	48.2	48.2	48.2	79	42.0	0	0	---	0.00	30.095 
21:15	48.0	48.0	48.0	79	41.8	0	0	---	0.00	30.104 
21:20	48.0	48.0	48.0	79	41.8	0	0	---	0.00	30.104 
21:25	48.2	48.2	48.2	77	41.3	0	0	---	0.00	30.104 
21:30	48.2	48.2	48.2	77	41.3	0	0	---	0.00	30.102 
21:35	48.2	48.2	48.2	76	41.0	0	0	---	0.00	30.102 
21:40	48.2	48.2	48.2	76	41.0	0	0	---	0.00	30.102 
21:45	48.2	48.2	48.2	75	40.7	0	0	---	0.00	30.107 
21:50	48.2	48.2	48.2	75	40.7	0	0	---	0.00	30.107 
21:55	48.0	48.0	48.0	75	40.5	0	0	---	0.00	30.107 
22:00	48.0	48.0	48.0	75	40.5	0	0	---	0.00	30.117 
22:05	47.9	47.9	47.9	76	40.7	0	1	90	0.00	30.117 
22:10	47.9	47.9	47.9	76	40.7	0	0	---	0.00	30.117 
22:15	47.7	47.7	47.7	76	40.5	0	0	---	0.00	30.120 
22:20	47.7	47.7	47.7	76	40.5	0	0	---	0.00	30.120 
22:25	47.6	47.6	47.6	76	40.4	0	0	---	0.00	30.120 
22:30	47.4	47.4	47.4	77	40.6	0	0	---	0.00	30.121 
22:35	47.4	47.4	47.4	77	40.6	0	0	---	0.00	30.121 
22:40	47.3	47.3	47.3	76	40.1	0	0	---	0.00	30.121 
22:45	47.1	47.1	47.1	76	39.9	0	0	---	0.00	30.121 
22:50	47.0	47.0	47.0	77	40.2	0	0	---	0.00	30.121 
22:55	47.0	47.0	47.0	77	40.2	0	0	---	0.00	30.121 
23:00	47.0	47.0	47.0	77	40.2	0	0	---	0.00	30.131 
23:05	47.0	47.0	47.0	77	40.2	0	0	---	0.00	30.131 
23:10	47.0	47.0	47.0	77	40.2	0	0	---	0.00	30.131 
23:15	46.8	46.8	46.8	77	40.0	0	0	---	0.00	30.125 
23:20	46.8	46.8	46.8	77	40.0	0	0	---	0.00	30.125 
23:25	46.8	46.8	46.8	77	40.0	0	0	---	0.00	30.125 
23:30	46.8	46.8	46.8	77	40.0	0	0	---	0.00	30.120 
23:35	46.8	46.8	46.8	77	40.0	0	0	---	0.00	30.120 
23:40	46.7	46.7	46.7	77	39.9	0	0	---	0.00	30.120 
23:45	46.7	46.7	46.7	77	39.9	0	0	---	0.00	30.122 
23:50	46.5	46.5	46.5	77	39.7	0	0	---	0.00	30.122 
23:55	46.5	46.5	46.5	77	39.7	0	0	---	0.00	30.122 

CoCoRaHS
IN-AL-39
A2 Web Hosting
Creative Commons License
GoDaddy
search engine by freefind advanced

loaded 2018-11-20 07:10:34 • last modified 2010-11-18 10:43:29
Privacy PolicyDisclaimer
• wx.awcolley.com is powered by PmWiki v.2002016 •
• all content (unless otherwise noted) © 2018 A W Colley